Time;durP1;ratioP1;P1;durP2;ratioP2;P2;SDS_P1;SDS_P2;PMS_P1;PMS_P2;Temp;Humidity;BMP_temperature;BMP_pressure;BME280_temperature;BME280_humidity;BME280_pressure;Samples;Min_cycle;Max_cycle;Signal;HPM_P1;HPM_P2
2023/08/04 00:00:07;;;;;;;7.97;7.57;;;;;;;;;;4974611;28;20038;-72
2023/08/04 00:02:33;;;;;;;7.97;7.50;;;;;;;;;;4983316;28;20056;-73
2023/08/04 00:04:58;;;;;;;8.60;7.93;;;;;;;;;;4986737;28;20042;-73
2023/08/04 00:07:24;;;;;;;8.85;8.07;;;;;;;;;;4988894;28;20033;-73
2023/08/04 00:09:49;;;;;;;8.27;7.63;;;;;;;;;;4989427;28;20034;-73
2023/08/04 00:12:14;;;;;;;8.30;7.70;;;;;;;;;;4989918;28;20045;-73
2023/08/04 00:14:40;;;;;;;9.07;7.80;;;;;;;;;;4985224;28;20070;-73
2023/08/04 00:17:05;;;;;;;8.70;8.10;;;;;;;;;;4988238;28;20049;-73
2023/08/04 00:19:31;;;;;;;8.35;7.80;;;;;;;;;;4989057;28;20042;-73
2023/08/04 00:21:56;;;;;;;8.65;8.15;;;;;;;;;;4989424;28;20034;-73
2023/08/04 00:24:22;;;;;;;8.85;8.18;;;;;;;;;;4987179;28;20054;-73
2023/08/04 00:26:47;;;;;;;8.70;8.10;;;;;;;;;;4989464;28;20501;-73
2023/08/04 00:29:14;;;;;;;8.90;8.25;;;;;;;;;;4987430;28;20038;-73
2023/08/04 00:31:40;;;;;;;8.32;7.72;;;;;;;;;;4989350;28;20041;-73
2023/08/04 00:34:05;;;;;;;9.02;8.23;;;;;;;;;;4986202;28;20046;-73
2023/08/04 00:36:31;;;;;;;8.57;7.85;;;;;;;;;;4989371;28;20042;-73
2023/08/04 00:38:56;;;;;;;8.82;8.32;;;;;;;;;;4987288;28;20042;-73
2023/08/04 00:41:22;;;;;;;8.40;7.70;;;;;;;;;;4986211;28;20026;-73
2023/08/04 00:43:47;;;;;;;8.13;7.57;;;;;;;;;;4987261;28;20446;-73
2023/08/04 00:46:14;;;;;;;8.85;8.23;;;;;;;;;;4988690;28;20449;-73
2023/08/04 00:48:39;;;;;;;8.43;7.82;;;;;;;;;;4988141;28;20045;-73
2023/08/04 00:51:05;;;;;;;8.25;7.75;;;;;;;;;;4985027;28;20030;-73
2023/08/04 00:53:31;;;;;;;8.63;7.93;;;;;;;;;;4992464;28;20046;-73
2023/08/04 00:55:56;;;;;;;8.10;7.60;;;;;;;;;;4987334;28;20104;-73
2023/08/04 00:58:22;;;;;;;8.73;8.05;;;;;;;;;;4988172;28;20029;-72
2023/08/04 01:00:48;;;;;;;8.68;8.07;;;;;;;;;;4988177;28;20568;-73
2023/08/04 01:03:13;;;;;;;7.88;7.38;;;;;;;;;;4992379;28;20042;-73
2023/08/04 01:05:58;;;;;;;8.45;7.88;;;;;;;;;;4986219;28;20022;-73
2023/08/04 01:08:32;;;;;;;8.30;7.60;;;;;;;;;;4985470;28;20034;-73
2023/08/04 01:11:06;;;;;;;8.52;7.80;;;;;;;;;;4985973;28;20062;-73
2023/08/04 01:13:34;;;;;;;8.77;8.07;;;;;;;;;;4987598;28;20046;-72
2023/08/04 01:16:04;;;;;;;8.98;8.18;;;;;;;;;;4987513;28;20133;-72
2023/08/04 01:18:30;;;;;;;8.75;8.05;;;;;;;;;;4986525;28;21417;-72
2023/08/04 01:21:01;;;;;;;8.38;7.88;;;;;;;;;;4988531;28;20088;-73
2023/08/04 01:23:27;;;;;;;8.10;7.60;;;;;;;;;;4988458;28;20572;-73
2023/08/04 01:25:52;;;;;;;8.88;7.90;;;;;;;;;;4991001;28;20046;-73
2023/08/04 01:28:20;;;;;;;8.68;8.05;;;;;;;;;;4984626;28;20737;-73
2023/08/04 01:30:49;;;;;;;8.43;7.85;;;;;;;;;;4988272;28;20037;-73
2023/08/04 01:33:15;;;;;;;8.95;8.25;;;;;;;;;;4987783;28;20034;-74
2023/08/04 01:35:42;;;;;;;8.88;8.13;;;;;;;;;;4988383;28;20368;-73
2023/08/04 01:38:08;;;;;;;8.40;7.60;;;;;;;;;;4984697;28;20042;-73
2023/08/04 01:40:34;;;;;;;8.65;7.95;;;;;;;;;;4988775;28;20046;-72
2023/08/04 01:43:00;;;;;;;8.88;8.38;;;;;;;;;;4987517;28;20341;-73
2023/08/04 01:45:25;;;;;;;8.18;7.63;;;;;;;;;;4985597;28;20498;-74
2023/08/04 01:47:52;;;;;;;8.68;7.82;;;;;;;;;;4986421;28;20068;-74
2023/08/04 01:50:17;;;;;;;8.65;8.10;;;;;;;;;;4993976;28;20030;-74
2023/08/04 01:52:43;;;;;;;8.90;8.30;;;;;;;;;;4994001;28;20050;-73
2023/08/04 01:55:08;;;;;;;8.40;7.90;;;;;;;;;;4987112;28;20430;-74
2023/08/04 01:57:34;;;;;;;8.52;7.88;;;;;;;;;;4986933;28;20120;-74
2023/08/04 01:59:59;;;;;;;8.18;7.47;;;;;;;;;;4994189;28;20069;-74
2023/08/04 02:02:28;;;;;;;10.13;8.27;;;;;;;;;;4992536;28;20046;-73
2023/08/04 02:04:57;;;;;;;9.25;8.45;;;;;;;;;;4981286;28;20046;-73
2023/08/04 02:07:22;;;;;;;8.70;7.97;;;;;;;;;;4993095;28;20045;-74
2023/08/04 02:09:48;;;;;;;8.32;7.78;;;;;;;;;;4993452;28;20100;-73
2023/08/04 02:12:13;;;;;;;8.40;7.70;;;;;;;;;;4987315;28;20449;-74
2023/08/04 02:14:39;;;;;;;8.30;7.65;;;;;;;;;;4986257;28;20046;-73
2023/08/04 02:17:06;;;;;;;8.90;8.13;;;;;;;;;;4987461;28;20044;-74
2023/08/04 02:19:38;;;;;;;8.82;7.88;;;;;;;;;;4985045;28;20038;-74
2023/08/04 02:22:04;;;;;;;7.97;7.47;;;;;;;;;;4970816;28;20053;-74
2023/08/04 02:24:31;;;;;;;9.68;7.90;;;;;;;;;;4985972;28;20046;-74
2023/08/04 02:26:56;;;;;;;8.60;7.90;;;;;;;;;;4984780;28;20504;-73
2023/08/04 02:29:22;;;;;;;8.45;7.75;;;;;;;;;;4984743;28;20039;-73
2023/08/04 02:31:47;;;;;;;8.88;8.27;;;;;;;;;;4986355;28;20060;-73
2023/08/04 02:34:14;;;;;;;9.05;8.13;;;;;;;;;;4987630;28;20125;-73
2023/08/04 02:36:40;;;;;;;8.57;7.82;;;;;;;;;;4986193;28;20117;-73
2023/08/04 02:39:05;;;;;;;8.77;8.00;;;;;;;;;;4985465;28;20065;-73
2023/08/04 02:41:33;;;;;;;8.40;7.80;;;;;;;;;;4986839;28;20150;-73
2023/08/04 02:43:58;;;;;;;8.07;7.57;;;;;;;;;;4990921;28;20050;-73
2023/08/04 02:46:25;;;;;;;8.75;8.07;;;;;;;;;;4986523;28;20045;-74
2023/08/04 02:48:51;;;;;;;8.15;7.63;;;;;;;;;;4984323;28;20069;-73
2023/08/04 02:51:17;;;;;;;7.97;7.50;;;;;;;;;;4969459;28;20096;-74
2023/08/04 02:53:45;;;;;;;8.32;7.60;;;;;;;;;;4981023;28;20046;-73
2023/08/04 02:56:13;;;;;;;8.57;7.97;;;;;;;;;;4999376;28;20399;-73
2023/08/04 02:58:39;;;;;;;8.20;7.50;;;;;;;;;;4988811;28;20285;-73
2023/08/04 03:01:04;;;;;;;8.02;7.53;;;;;;;;;;4986108;28;20142;-73
2023/08/04 03:03:33;;;;;;;8.63;7.88;;;;;;;;;;4982894;28;20070;-73
2023/08/04 03:06:00;;;;;;;8.50;7.95;;;;;;;;;;4983246;28;20649;-74
2023/08/04 03:08:26;;;;;;;8.45;7.90;;;;;;;;;;4982857;28;20126;-73
2023/08/04 03:10:52;;;;;;;9.00;8.40;;;;;;;;;;4982763;28;20046;-73
2023/08/04 03:13:17;;;;;;;8.50;7.60;;;;;;;;;;4979769;28;20085;-73
2023/08/04 03:15:43;;;;;;;8.35;7.80;;;;;;;;;;4985318;28;20038;-73
2023/08/04 03:18:08;;;;;;;8.48;7.78;;;;;;;;;;4976152;28;20081;-73
2023/08/04 03:20:41;;;;;;;8.43;7.88;;;;;;;;;;4986261;28;20558;-73
2023/08/04 03:23:07;;;;;;;8.85;8.10;;;;;;;;;;4983458;28;20117;-73
2023/08/04 03:25:33;;;;;;;8.68;7.97;;;;;;;;;;4983359;28;20084;-73
2023/08/04 03:27:59;;;;;;;8.20;7.40;;;;;;;;;;4980530;28;20034;-74
2023/08/04 03:30:25;;;;;;;8.75;7.88;;;;;;;;;;4984253;28;20504;-73
2023/08/04 03:32:50;;;;;;;8.77;7.90;;;;;;;;;;4985231;28;20132;-73
2023/08/04 03:35:16;;;;;;;8.80;8.20;;;;;;;;;;4979459;28;20038;-73
2023/08/04 03:37:42;;;;;;;8.50;7.90;;;;;;;;;;4980811;28;20125;-73
2023/08/04 03:40:08;;;;;;;9.02;8.07;;;;;;;;;;4980383;28;20034;-73
2023/08/04 03:42:36;;;;;;;8.40;7.80;;;;;;;;;;4983217;28;20041;-73
2023/08/04 03:45:02;;;;;;;8.45;7.88;;;;;;;;;;4979964;28;20065;-73
2023/08/04 03:47:29;;;;;;;8.73;8.13;;;;;;;;;;4980212;28;20077;-73
2023/08/04 03:49:55;;;;;;;7.93;7.43;;;;;;;;;;4982830;28;20096;-73
2023/08/04 03:52:21;;;;;;;8.77;7.93;;;;;;;;;;4981178;28;20085;-73
2023/08/04 03:54:47;;;;;;;9.02;8.43;;;;;;;;;;4983935;28;20454;-73
2023/08/04 03:57:12;;;;;;;8.27;7.78;;;;;;;;;;4985154;28;20027;-73
2023/08/04 03:59:38;;;;;;;8.40;7.80;;;;;;;;;;4982098;28;20030;-72
2023/08/04 04:02:04;;;;;;;8.52;8.00;;;;;;;;;;4985751;28;20042;-73
2023/08/04 04:04:30;;;;;;;9.18;8.35;;;;;;;;;;4983072;28;20494;-72
2023/08/04 04:06:55;;;;;;;8.55;7.93;;;;;;;;;;4980255;28;20030;-72
2023/08/04 04:09:21;;;;;;;8.40;7.80;;;;;;;;;;4991937;28;20118;-73
2023/08/04 04:11:46;;;;;;;8.50;7.70;;;;;;;;;;4991937;28;20039;-72
2023/08/04 04:14:12;;;;;;;8.90;8.40;;;;;;;;;;4983749;28;20530;-72
2023/08/04 04:16:37;;;;;;;8.40;7.80;;;;;;;;;;4984124;28;20057;-72
2023/08/04 04:19:03;;;;;;;8.18;7.57;;;;;;;;;;4984971;28;20038;-73
2023/08/04 04:21:28;;;;;;;8.63;7.85;;;;;;;;;;4986272;28;20084;-73
2023/08/04 04:23:54;;;;;;;9.40;8.65;;;;;;;;;;4990515;28;20042;-73
2023/08/04 04:26:20;;;;;;;8.60;7.85;;;;;;;;;;4982756;28;20038;-73
2023/08/04 04:28:45;;;;;;;8.63;8.13;;;;;;;;;;4985384;28;20088;-73
2023/08/04 04:31:11;;;;;;;8.82;8.15;;;;;;;;;;4983797;28;20145;-73
2023/08/04 04:33:36;;;;;;;9.88;8.90;;;;;;;;;;4983660;28;20109;-73
2023/08/04 04:36:02;;;;;;;9.90;8.90;;;;;;;;;;4985099;28;20475;-72
2023/08/04 04:38:30;;;;;;;12.18;9.10;;;;;;;;;;4984469;28;20030;-72
2023/08/04 04:41:00;;;;;;;9.30;8.43;;;;;;;;;;4985205;28;20499;-72
2023/08/04 04:43:26;;;;;;;9.32;8.70;;;;;;;;;;4984313;28;20081;-73
2023/08/04 04:45:52;;;;;;;9.43;8.48;;;;;;;;;;4983901;28;20065;-72
2023/08/04 04:48:19;;;;;;;9.98;9.07;;;;;;;;;;4984981;28;20676;-73
2023/08/04 04:50:45;;;;;;;9.52;8.77;;;;;;;;;;4984884;28;20035;-72
2023/08/04 04:53:11;;;;;;;9.60;8.77;;;;;;;;;;4985573;28;20136;-72
2023/08/04 04:55:36;;;;;;;9.48;8.88;;;;;;;;;;4988614;28;20118;-72
2023/08/04 04:58:02;;;;;;;11.07;9.00;;;;;;;;;;4993664;28;20091;-72
2023/08/04 05:00:27;;;;;;;9.85;9.00;;;;;;;;;;4992313;28;20081;-72
2023/08/04 05:02:53;;;;;;;9.57;8.98;;;;;;;;;;4988629;28;20109;-72
2023/08/04 05:05:19;;;;;;;9.60;9.00;;;;;;;;;;4987180;28;20038;-72
2023/08/04 05:07:44;;;;;;;9.30;8.70;;;;;;;;;;4994982;28;20133;-73
2023/08/04 05:10:10;;;;;;;9.13;8.60;;;;;;;;;;4987108;28;20065;-73
2023/08/04 05:12:36;;;;;;;9.63;8.80;;;;;;;;;;4988370;28;20042;-73
2023/08/04 05:15:01;;;;;;;9.57;8.77;;;;;;;;;;4984222;28;20046;-73
2023/08/04 05:17:27;;;;;;;9.32;8.63;;;;;;;;;;4987048;28;20084;-73
2023/08/04 05:19:53;;;;;;;9.45;8.77;;;;;;;;;;4987423;28;20046;-73
2023/08/04 05:22:19;;;;;;;9.10;8.40;;;;;;;;;;4990655;28;20091;-73
2023/08/04 05:24:44;;;;;;;9.65;8.95;;;;;;;;;;4985092;28;20042;-73
2023/08/04 05:27:10;;;;;;;9.77;9.10;;;;;;;;;;4987922;28;20066;-73
2023/08/04 05:29:36;;;;;;;9.75;9.13;;;;;;;;;;4988114;28;20077;-73
2023/08/04 05:32:01;;;;;;;10.23;9.18;;;;;;;;;;4988371;28;20429;-73
2023/08/04 05:34:27;;;;;;;9.90;9.30;;;;;;;;;;4986658;28;20038;-73
2023/08/04 05:36:52;;;;;;;9.48;8.75;;;;;;;;;;4988278;28;20403;-73
2023/08/04 05:39:18;;;;;;;9.57;8.68;;;;;;;;;;4990544;28;20077;-73
2023/08/04 05:41:45;;;;;;;10.15;9.40;;;;;;;;;;4988262;28;20450;-73
2023/08/04 05:44:11;;;;;;;9.13;8.52;;;;;;;;;;4989156;28;20054;-73
2023/08/04 05:46:37;;;;;;;9.45;8.70;;;;;;;;;;4988151;28;20064;-73
2023/08/04 05:49:03;;;;;;;9.52;8.82;;;;;;;;;;4986600;28;20046;-74
2023/08/04 05:51:29;;;;;;;10.10;9.20;;;;;;;;;;4969760;28;20964;-73
2023/08/04 05:53:55;;;;;;;10.70;9.38;;;;;;;;;;4984615;28;20571;-74
2023/08/04 05:56:20;;;;;;;9.07;8.38;;;;;;;;;;4987226;28;20117;-73
2023/08/04 05:58:46;;;;;;;9.80;9.05;;;;;;;;;;4979516;28;20034;-74
2023/08/04 06:01:11;;;;;;;9.23;8.57;;;;;;;;;;4998798;28;20034;-73
2023/08/04 06:03:37;;;;;;;9.90;9.10;;;;;;;;;;4986721;28;20034;-73
2023/08/04 06:06:03;;;;;;;9.23;8.63;;;;;;;;;;4984713;28;20421;-73
2023/08/04 06:08:29;;;;;;;9.57;8.85;;;;;;;;;;4981700;28;20066;-73
2023/08/04 06:10:55;;;;;;;9.40;8.50;;;;;;;;;;4984486;28;20034;-73
2023/08/04 06:13:20;;;;;;;9.85;8.98;;;;;;;;;;4983027;28;20060;-73
2023/08/04 06:15:47;;;;;;;9.23;8.63;;;;;;;;;;4986353;28;20034;-73
2023/08/04 06:18:13;;;;;;;9.43;8.52;;;;;;;;;;4984634;28;20038;-73
2023/08/04 06:20:39;;;;;;;9.25;8.65;;;;;;;;;;4984012;28;20038;-73
2023/08/04 06:23:05;;;;;;;9.05;8.45;;;;;;;;;;4984116;28;20092;-73
2023/08/04 06:25:31;;;;;;;9.27;8.57;;;;;;;;;;4985632;28;20030;-74
2023/08/04 06:27:57;;;;;;;9.05;8.15;;;;;;;;;;4981236;28;20410;-74
2023/08/04 06:30:23;;;;;;;8.40;7.90;;;;;;;;;;4984877;28;20034;-74
2023/08/04 06:32:49;;;;;;;8.65;8.05;;;;;;;;;;4986617;28;20041;-73
2023/08/04 06:35:15;;;;;;;8.50;7.80;;;;;;;;;;4979829;28;20054;-73
2023/08/04 06:37:41;;;;;;;8.73;7.93;;;;;;;;;;4983730;28;20117;-72
2023/08/04 06:40:07;;;;;;;8.82;8.05;;;;;;;;;;4985533;28;20133;-73
2023/08/04 06:42:33;;;;;;;8.45;7.88;;;;;;;;;;4979109;28;20425;-73
2023/08/04 06:44:58;;;;;;;8.38;7.78;;;;;;;;;;4980482;28;20048;-72
2023/08/04 06:47:24;;;;;;;8.18;7.53;;;;;;;;;;4979211;28;20461;-72
2023/08/04 06:49:49;;;;;;;8.65;7.97;;;;;;;;;;4980658;28;20443;-72
2023/08/04 06:52:15;;;;;;;9.07;7.97;;;;;;;;;;4979401;28;20060;-73
2023/08/04 06:54:40;;;;;;;8.48;7.88;;;;;;;;;;4985018;28;20491;-73
2023/08/04 06:57:06;;;;;;;8.82;7.90;;;;;;;;;;4981253;28;20390;-75
2023/08/04 06:59:33;;;;;;;8.90;8.13;;;;;;;;;;4980624;28;20042;-73
2023/08/04 07:01:58;;;;;;;8.70;8.00;;;;;;;;;;4976779;28;20030;-73
2023/08/04 07:04:24;;;;;;;9.25;7.95;;;;;;;;;;4982223;28;20045;-74
2023/08/04 07:06:50;;;;;;;8.75;8.15;;;;;;;;;;4983607;28;20041;-72
2023/08/04 07:09:15;;;;;;;8.73;8.00;;;;;;;;;;4976348;28;20027;-72
2023/08/04 07:11:41;;;;;;;9.00;8.32;;;;;;;;;;4976809;28;20053;-74
2023/08/04 07:14:07;;;;;;;9.20;8.50;;;;;;;;;;4983783;28;20041;-75
2023/08/04 07:16:33;;;;;;;9.07;8.48;;;;;;;;;;4989674;28;20491;-73
2023/08/04 07:18:58;;;;;;;9.20;8.40;;;;;;;;;;4976748;28;20269;-73
2023/08/04 07:21:24;;;;;;;7.95;7.45;;;;;;;;;;4975865;28;20487;-72
2023/08/04 07:23:49;;;;;;;8.88;8.18;;;;;;;;;;4978058;28;20155;-73
2023/08/04 07:26:15;;;;;;;8.68;7.82;;;;;;;;;;4978604;28;20072;-72
2023/08/04 07:28:41;;;;;;;8.57;7.88;;;;;;;;;;4983931;28;20057;-72
2023/08/04 07:31:08;;;;;;;7.65;7.22;;;;;;;;;;4978955;28;20041;-72
2023/08/04 07:33:35;;;;;;;8.63;7.93;;;;;;;;;;4981125;28;20085;-73
2023/08/04 07:36:02;;;;;;;8.70;8.10;;;;;;;;;;4983140;28;20108;-73
2023/08/04 07:38:28;;;;;;;8.82;8.02;;;;;;;;;;4976150;28;20033;-73
2023/08/04 07:40:54;;;;;;;8.30;7.80;;;;;;;;;;4975828;28;20050;-73
2023/08/04 07:43:20;;;;;;;8.55;7.78;;;;;;;;;;4982252;28;20065;-73
2023/08/04 07:45:46;;;;;;;9.00;8.18;;;;;;;;;;4981822;28;20069;-73
2023/08/04 07:48:11;;;;;;;8.55;8.05;;;;;;;;;;4979941;28;20034;-73
2023/08/04 07:50:39;;;;;;;8.27;7.78;;;;;;;;;;4978284;28;20109;-73
2023/08/04 07:53:05;;;;;;;8.43;7.82;;;;;;;;;;4979884;28;20093;-73
2023/08/04 07:55:36;;;;;;;8.18;7.60;;;;;;;;;;4981463;28;20042;-73
2023/08/04 07:58:08;;;;;;;8.10;7.40;;;;;;;;;;4981006;28;20080;-73
2023/08/04 08:00:35;;;;;;;8.57;7.78;;;;;;;;;;4980162;28;20045;-73
2023/08/04 08:03:01;;;;;;;7.60;7.10;;;;;;;;;;4976386;28;20041;-73
2023/08/04 08:05:26;;;;;;;7.82;7.32;;;;;;;;;;4979424;28;20038;-73
2023/08/04 08:07:52;;;;;;;8.10;7.50;;;;;;;;;;4979699;28;20038;-73
2023/08/04 08:10:18;;;;;;;7.57;7.07;;;;;;;;;;4982150;28;20470;-73
2023/08/04 08:12:44;;;;;;;7.90;7.30;;;;;;;;;;4981288;28;20121;-73
2023/08/04 08:15:10;;;;;;;7.38;6.93;;;;;;;;;;4977147;28;20152;-73
2023/08/04 08:17:37;;;;;;;7.68;7.18;;;;;;;;;;4979806;28;20057;-73
2023/08/04 08:20:03;;;;;;;7.75;6.97;;;;;;;;;;4982797;28;20062;-73
2023/08/04 08:22:28;;;;;;;7.53;6.85;;;;;;;;;;4980691;28;20074;-73
2023/08/04 08:24:54;;;;;;;7.28;6.70;;;;;;;;;;4972394;28;20046;-73
2023/08/04 08:27:20;;;;;;;6.90;6.40;;;;;;;;;;4977434;28;20092;-73
2023/08/04 08:29:46;;;;;;;7.13;6.63;;;;;;;;;;4977417;28;20042;-73
2023/08/04 08:32:11;;;;;;;6.50;6.10;;;;;;;;;;4979400;28;20042;-73
2023/08/04 08:34:38;;;;;;;6.70;6.07;;;;;;;;;;4964187;28;20153;-74
2023/08/04 08:37:07;;;;;;;6.80;6.20;;;;;;;;;;4980086;28;20052;-74
2023/08/04 08:39:33;;;;;;;6.80;6.20;;;;;;;;;;4982172;28;20041;-73
2023/08/04 08:41:59;;;;;;;7.05;6.65;;;;;;;;;;4980450;28;20073;-74
2023/08/04 08:44:24;;;;;;;6.38;5.82;;;;;;;;;;4976163;28;20037;-74
2023/08/04 08:46:50;;;;;;;6.60;6.15;;;;;;;;;;4979976;28;20087;-74
2023/08/04 08:49:16;;;;;;;6.60;6.10;;;;;;;;;;4980597;28;20118;-74
2023/08/04 08:51:47;;;;;;;7.70;6.97;;;;;;;;;;4977320;28;20038;-74
2023/08/04 08:54:15;;;;;;;7.13;6.72;;;;;;;;;;4976303;28;20042;-73
2023/08/04 08:56:41;;;;;;;7.20;6.70;;;;;;;;;;4978335;28;20038;-74
2023/08/04 08:59:07;;;;;;;6.57;6.07;;;;;;;;;;4981521;28;20033;-75
2023/08/04 09:01:34;;;;;;;6.00;5.60;;;;;;;;;;4985830;28;20034;-74
2023/08/04 09:04:00;;;;;;;6.30;5.90;;;;;;;;;;4977664;28;20027;-74
2023/08/04 09:06:26;;;;;;;6.78;6.18;;;;;;;;;;4984985;28;20042;-74
2023/08/04 09:08:53;;;;;;;6.60;6.10;;;;;;;;;;4982472;28;20038;-74
2023/08/04 09:11:19;;;;;;;6.50;6.10;;;;;;;;;;4982344;28;20068;-74
2023/08/04 09:13:45;;;;;;;7.93;6.55;;;;;;;;;;4981265;28;20045;-74
2023/08/04 09:16:12;;;;;;;6.88;6.32;;;;;;;;;;4981048;28;20041;-74
2023/08/04 09:18:39;;;;;;;7.18;6.55;;;;;;;;;;4974906;28;20236;-74
2023/08/04 09:21:07;;;;;;;7.18;6.60;;;;;;;;;;4984232;28;20046;-74
2023/08/04 09:23:36;;;;;;;7.50;7.00;;;;;;;;;;4985293;28;20061;-73
2023/08/04 09:26:02;;;;;;;7.13;6.72;;;;;;;;;;4983301;28;20312;-74
2023/08/04 09:28:28;;;;;;;7.45;6.95;;;;;;;;;;4993083;28;20108;-73
2023/08/04 09:30:59;;;;;;;7.63;7.05;;;;;;;;;;4986127;28;20066;-74
2023/08/04 09:33:25;;;;;;;7.35;6.85;;;;;;;;;;4977446;28;20525;-73
2023/08/04 09:36:06;;;;;;;7.72;7.30;;;;;;;;;;4969436;28;20109;-74
2023/08/04 09:38:33;;;;;;;8.70;8.10;;;;;;;;;;4974498;28;20042;-74
2023/08/04 09:41:04;;;;;;;8.20;7.60;;;;;;;;;;4978740;28;20088;-74
2023/08/04 09:43:29;;;;;;;7.70;7.07;;;;;;;;;;4975709;28;20038;-75
2023/08/04 09:46:02;;;;;;;6.93;6.50;;;;;;;;;;4973894;28;20414;-74
2023/08/04 09:48:28;;;;;;;7.28;6.70;;;;;;;;;;4974731;28;20042;-75
2023/08/04 09:51:09;;;;;;;7.00;6.45;;;;;;;;;;4977354;28;20046;-74
2023/08/04 09:53:36;;;;;;;6.70;6.20;;;;;;;;;;4976646;28;20042;-75
2023/08/04 09:56:02;;;;;;;6.60;6.18;;;;;;;;;;4976682;28;20069;-75
2023/08/04 09:58:28;;;;;;;6.80;6.30;;;;;;;;;;4978535;28;20041;-74
2023/08/04 10:00:54;;;;;;;6.57;5.97;;;;;;;;;;4976410;28;20038;-74
2023/08/04 10:03:20;;;;;;;6.90;6.25;;;;;;;;;;4974640;28;20771;-74
2023/08/04 10:05:47;;;;;;;7.53;6.53;;;;;;;;;;4975900;28;20110;-74
2023/08/04 10:08:13;;;;;;;7.40;6.85;;;;;;;;;;4977201;28;20042;-74
2023/08/04 10:10:39;;;;;;;8.02;7.35;;;;;;;;;;4956050;28;20113;-74
2023/08/04 10:13:05;;;;;;;7.72;7.20;;;;;;;;;;4973592;28;21019;-74
2023/08/04 10:15:30;;;;;;;7.10;6.50;;;;;;;;;;4972648;28;20042;-74
2023/08/04 10:17:57;;;;;;;7.53;7.03;;;;;;;;;;4981057;28;20163;-74
2023/08/04 10:20:24;;;;;;;7.40;6.93;;;;;;;;;;4110792;28;10000907;-73
2023/08/04 10:22:50;;;;;;;7.63;6.93;;;;;;;;;;4978422;28;20506;-74
2023/08/04 10:25:16;;;;;;;6.57;6.07;;;;;;;;;;4973764;28;20053;-73
2023/08/04 10:27:49;;;;;;;6.30;5.90;;;;;;;;;;4976317;28;20133;-74
2023/08/04 10:30:15;;;;;;;6.45;6.00;;;;;;;;;;4978898;28;20097;-74
2023/08/04 10:32:41;;;;;;;6.25;5.85;;;;;;;;;;4978836;28;20042;-74
2023/08/04 10:35:16;;;;;;;6.20;5.80;;;;;;;;;;4977334;28;20034;-74
2023/08/04 10:37:49;;;;;;;6.32;5.93;;;;;;;;;;4985565;28;20474;-73
2023/08/04 10:40:33;;;;;;;7.60;7.00;;;;;;;;;;4999692;28;20085;-73
2023/08/04 10:43:08;;;;;;;7.10;6.70;;;;;;;;;;4973917;28;20077;-73
2023/08/04 10:45:54;;;;;;;7.22;6.82;;;;;;;;;;4960520;28;20065;-73
2023/08/04 10:48:21;;;;;;;7.50;6.90;;;;;;;;;;4974126;28;20038;-73
2023/08/04 10:50:48;;;;;;;7.22;6.72;;;;;;;;;;4980419;28;20049;-74
2023/08/04 10:53:15;;;;;;;7.25;6.60;;;;;;;;;;4975933;28;20120;-73
2023/08/04 10:55:55;;;;;;;7.97;7.28;;;;;;;;;;4975019;28;20042;-73
2023/08/04 10:58:25;;;;;;;7.80;7.20;;;;;;;;;;4121078;28;10000631;-73
2023/08/04 11:00:56;;;;;;;7.92;6.87;;;;;;;;;;4245070;28;10001420;-73
2023/08/04 11:03:23;;;;;;;8.48;7.70;;;;;;;;;;4989626;28;20073;-73
2023/08/04 11:05:50;;;;;;;8.55;7.90;;;;;;;;;;4991758;28;20046;-73
2023/08/04 11:08:18;;;;;;;8.65;8.00;;;;;;;;;;4992039;28;20042;-73
2023/08/04 11:10:54;;;;;;;9.40;8.50;;;;;;;;;;4998343;28;20037;-73
2023/08/04 11:13:22;;;;;;;8.27;7.78;;;;;;;;;;4994394;28;20037;-73
2023/08/04 11:15:49;;;;;;;8.70;8.00;;;;;;;;;;4997078;28;20103;-73
2023/08/04 11:18:21;;;;;;;9.13;8.50;;;;;;;;;;4980878;28;20123;-73
2023/08/04 11:20:47;;;;;;;8.77;8.18;;;;;;;;;;4126257;28;10001001;-73
2023/08/04 11:23:12;;;;;;;8.73;8.02;;;;;;;;;;4995452;28;20405;-74
2023/08/04 11:25:39;;;;;;;8.07;7.45;;;;;;;;;;4999065;28;20081;-74
2023/08/04 11:28:06;;;;;;;8.77;8.23;;;;;;;;;;4998032;28;20050;-74
2023/08/04 11:30:33;;;;;;;8.80;8.10;;;;;;;;;;4996345;28;20044;-74
2023/08/04 11:32:59;;;;;;;8.45;7.85;;;;;;;;;;4993234;28;20046;-74
2023/08/04 11:35:28;;;;;;;8.27;7.50;;;;;;;;;;4998371;28;20038;-75
2023/08/04 11:37:54;;;;;;;7.97;7.45;;;;;;;;;;4981918;28;20731;-75
2023/08/04 11:40:24;;;;;;;7.90;7.20;;;;;;;;;;5004870;28;20054;-73
2023/08/04 11:42:50;;;;;;;7.68;7.13;;;;;;;;;;4999048;28;20109;-75
2023/08/04 11:45:17;;;;;;;8.02;7.22;;;;;;;;;;5000961;28;20080;-76
2023/08/04 11:47:43;;;;;;;7.97;7.30;;;;;;;;;;4983350;28;20066;-75
2023/08/04 11:50:09;;;;;;;7.60;7.00;;;;;;;;;;5002637;28;20072;-75
2023/08/04 11:52:38;;;;;;;7.82;7.30;;;;;;;;;;5002956;28;20048;-73
2023/08/04 11:55:07;;;;;;;7.70;7.20;;;;;;;;;;5003423;28;20037;-73
2023/08/04 11:57:32;;;;;;;7.70;7.18;;;;;;;;;;5001884;28;20087;-73
2023/08/04 11:59:58;;;;;;;7.70;7.10;;;;;;;;;;5003116;28;20801;-73
2023/08/04 12:02:24;;;;;;;7.53;7.00;;;;;;;;;;5006437;28;20041;-73
2023/08/04 12:05:13;;;;;;;8.13;7.53;;;;;;;;;;5005609;28;20038;-73
2023/08/04 12:07:39;;;;;;;;;;;;;;;;;;5003572;28;20038;-73
2023/08/04 12:10:06;;;;;;;7.95;7.38;;;;;;;;;;5006569;28;19933;-73
2023/08/04 12:12:35;;;;;;;8.45;7.80;;;;;;;;;;5007414;28;20041;-74
2023/08/04 12:15:01;;;;;;;8.38;7.68;;;;;;;;;;5006227;28;20055;-74
2023/08/04 12:17:41;;;;;;;8.05;7.43;;;;;;;;;;5008895;28;20432;-73
2023/08/04 12:20:12;;;;;;;8.60;7.88;;;;;;;;;;5007136;28;20036;-74
2023/08/04 12:22:40;;;;;;;8.63;8.07;;;;;;;;;;5005805;28;20647;-74
2023/08/04 12:25:06;;;;;;;9.13;8.40;;;;;;;;;;5007028;28;20657;-74
2023/08/04 12:27:32;;;;;;;8.82;8.23;;;;;;;;;;5007105;28;20089;-74
2023/08/04 12:29:57;;;;;;;8.88;8.18;;;;;;;;;;5005818;28;20065;-74
2023/08/04 12:32:23;;;;;;;9.77;8.95;;;;;;;;;;5006007;28;20046;-74
2023/08/04 12:34:49;;;;;;;10.05;9.15;;;;;;;;;;5007896;28;20518;-73
2023/08/04 12:37:15;;;;;;;9.50;8.70;;;;;;;;;;5008946;28;20037;-74
2023/08/04 12:39:46;;;;;;;9.43;8.73;;;;;;;;;;5008048;28;20040;-74
2023/08/04 12:42:12;;;;;;;9.52;8.82;;;;;;;;;;5007650;28;20088;-73
2023/08/04 12:44:38;;;;;;;9.30;8.65;;;;;;;;;;5013882;28;20464;-74
2023/08/04 12:47:04;;;;;;;9.05;8.25;;;;;;;;;;5004613;28;20041;-74
2023/08/04 12:49:29;;;;;;;8.80;8.20;;;;;;;;;;5007040;28;20155;-74
2023/08/04 12:51:55;;;;;;;10.55;9.52;;;;;;;;;;5007842;28;20145;-74
2023/08/04 12:54:22;;;;;;;9.60;8.80;;;;;;;;;;5004539;28;20034;-75
2023/08/04 12:56:51;;;;;;;10.65;8.57;;;;;;;;;;5005617;28;20131;-74
2023/08/04 12:59:17;;;;;;;9.40;8.80;;;;;;;;;;5005160;28;20125;-74
2023/08/04 13:01:42;;;;;;;9.70;8.95;;;;;;;;;;5005476;28;20042;-74
2023/08/04 13:04:08;;;;;;;10.38;9.55;;;;;;;;;;5001971;28;20030;-74
2023/08/04 13:06:34;;;;;;;9.05;8.35;;;;;;;;;;5005677;28;20125;-74
2023/08/04 13:08:59;;;;;;;10.07;9.30;;;;;;;;;;5004001;28;20064;-73
2023/08/04 13:11:25;;;;;;;9.93;9.25;;;;;;;;;;5005658;28;20034;-73
2023/08/04 13:13:51;;;;;;;9.27;8.43;;;;;;;;;;5004736;28;20045;-73
2023/08/04 13:16:17;;;;;;;9.45;8.75;;;;;;;;;;5005471;28;20041;-73
2023/08/04 13:18:42;;;;;;;9.27;8.68;;;;;;;;;;5005299;28;20053;-73
2023/08/04 13:21:08;;;;;;;9.57;9.00;;;;;;;;;;5004210;28;20046;-73
2023/08/04 13:23:33;;;;;;;9.65;9.00;;;;;;;;;;5005149;28;20041;-73
2023/08/04 13:26:04;;;;;;;9.02;8.50;;;;;;;;;;5005735;28;20065;-76
2023/08/04 13:28:31;;;;;;;8.65;8.05;;;;;;;;;;5002140;28;20138;-73
2023/08/04 13:30:57;;;;;;;9.32;8.73;;;;;;;;;;5003794;28;20060;-74
2023/08/04 13:33:22;;;;;;;9.05;8.55;;;;;;;;;;5005356;28;20112;-73
2023/08/04 13:35:51;;;;;;;9.40;8.70;;;;;;;;;;5005448;28;20045;-73
2023/08/04 13:38:17;;;;;;;8.82;8.32;;;;;;;;;;5003282;28;20041;-74
2023/08/04 13:40:42;;;;;;;9.50;8.80;;;;;;;;;;5003598;28;20044;-74
2023/08/04 13:43:08;;;;;;;9.18;8.57;;;;;;;;;;5003327;28;20087;-74
2023/08/04 13:45:35;;;;;;;9.30;8.43;;;;;;;;;;5005116;28;20026;-74
2023/08/04 13:48:00;;;;;;;9.10;8.55;;;;;;;;;;5002548;28;20120;-74
2023/08/04 13:50:26;;;;;;;9.48;8.63;;;;;;;;;;5004780;28;20470;-74
2023/08/04 13:52:51;;;;;;;10.02;9.18;;;;;;;;;;5004966;28;20088;-74
2023/08/04 13:55:17;;;;;;;9.57;8.98;;;;;;;;;;5003304;28;20459;-74
2023/08/04 13:57:43;;;;;;;8.90;8.40;;;;;;;;;;5004902;28;20723;-74
2023/08/04 14:00:10;;;;;;;9.02;8.15;;;;;;;;;;5004855;28;20486;-74
2023/08/04 14:02:36;;;;;;;8.68;7.88;;;;;;;;;;5004991;28;20045;-74
2023/08/04 14:05:01;;;;;;;8.73;8.23;;;;;;;;;;5003835;28;20064;-75
2023/08/04 14:07:27;;;;;;;8.60;8.10;;;;;;;;;;5004820;28;20160;-74
2023/08/04 14:09:52;;;;;;;8.65;8.07;;;;;;;;;;5006185;28;20058;-74
2023/08/04 14:12:18;;;;;;;8.73;8.18;;;;;;;;;;5004603;28;20088;-74
2023/08/04 14:14:43;;;;;;;8.82;8.23;;;;;;;;;;5003432;28;20045;-74
2023/08/04 14:17:09;;;;;;;9.35;8.65;;;;;;;;;;5004590;28;20041;-74
2023/08/04 14:19:35;;;;;;;9.25;8.60;;;;;;;;;;5004591;28;20038;-74
2023/08/04 14:22:00;;;;;;;8.90;8.30;;;;;;;;;;5002944;28;21017;-74
2023/08/04 14:24:26;;;;;;;9.27;8.65;;;;;;;;;;5008594;28;20034;-73
2023/08/04 14:26:52;;;;;;;9.38;8.73;;;;;;;;;;5009986;28;20494;-74
2023/08/04 14:29:17;;;;;;;9.93;9.25;;;;;;;;;;5003745;28;20052;-74
2023/08/04 14:31:44;;;;;;;9.95;9.25;;;;;;;;;;5004321;28;20037;-73
2023/08/04 14:34:09;;;;;;;10.00;9.20;;;;;;;;;;5003062;28;20481;-74
2023/08/04 14:36:35;;;;;;;8.98;8.48;;;;;;;;;;5003549;28;20050;-74
2023/08/04 14:39:01;;;;;;;9.50;8.88;;;;;;;;;;5003741;28;20042;-74